Time;durP1;ratioP1;P1;durP2;ratioP2;P2;SDS_P1;SDS_P2;PMS_P1;PMS_P2;Temp;Humidity;BMP_temperature;BMP_pressure;BME280_temperature;BME280_humidity;BME280_pressure;Samples;Min_cycle;Max_cycle;Signal;HPM_P1;HPM_P2
2021/05/10 00:04:08;;;;;;;2.03;0.80;;;16.00;99.90;;;;;;10408475;28;20107;-62
2021/05/10 00:09:10;;;;;;;2.38;0.90;;;15.80;99.90;;;;;;10409884;28;20059;-62
2021/05/10 00:14:12;;;;;;;1.83;1.10;;;15.70;99.90;;;;;;10405198;28;20053;-62
2021/05/10 00:19:13;;;;;;;4.05;0.90;;;15.70;99.90;;;;;;10408147;28;20049;-62
2021/05/10 00:24:14;;;;;;;1.95;1.00;;;15.60;99.90;;;;;;10409908;28;20369;-62
2021/05/10 00:29:18;;;;;;;1.50;1.08;;;15.60;99.90;;;;;;10405472;28;20053;-63
2021/05/10 00:34:19;;;;;;;4.15;1.00;;;15.60;99.90;;;;;;10407575;28;20049;-63
2021/05/10 00:39:21;;;;;;;3.75;1.50;;;15.50;99.90;;;;;;10412621;28;20177;-62
2021/05/10 00:44:22;;;;;;;5.63;1.60;;;15.50;99.90;;;;;;10416345;28;20144;-63
2021/05/10 00:49:23;;;;;;;1.42;0.93;;;15.40;99.90;;;;;;10420905;28;20084;-63
2021/05/10 00:54:24;;;;;;;5.95;2.42;;;15.40;99.90;;;;;;10413718;28;20060;-62
2021/05/10 00:59:26;;;;;;;4.07;2.05;;;15.40;99.90;;;;;;10418739;28;20063;-63
2021/05/10 01:04:27;;;;;;;3.55;1.70;;;15.40;99.90;;;;;;10415640;28;20053;-62
2021/05/10 01:09:28;;;;;;;1.95;0.93;;;15.30;99.90;;;;;;10411253;28;20134;-60
2021/05/10 01:14:30;;;;;;;5.13;2.35;;;15.30;99.90;;;;;;10415195;28;20068;-62
2021/05/10 01:19:34;;;;;;;4.45;2.47;;;15.20;99.90;;;;;;10422770;28;20110;-60
2021/05/10 01:24:35;;;;;;;4.85;2.17;;;15.30;99.90;;;;;;10413678;28;20044;-61
2021/05/10 01:29:37;;;;;;;3.00;1.90;;;15.30;99.90;;;;;;10416301;28;20049;-61
2021/05/10 01:34:39;;;;;;;3.47;1.65;;;15.10;99.90;;;;;;10414059;28;20057;-61
2021/05/10 01:39:40;;;;;;;4.05;1.63;;;15.10;99.90;;;;;;10417195;28;20057;-61
2021/05/10 01:44:41;;;;;;;4.00;1.80;;;15.10;99.90;;;;;;10411865;28;20103;-61
2021/05/10 01:49:48;;;;;;;10.43;4.43;;;15.20;99.90;;;;;;10418228;28;20103;-61
2021/05/10 01:54:51;;;;;;;21.35;10.52;;;15.00;99.90;;;;;;10410222;28;20110;-61
2021/05/10 01:59:52;;;;;;;21.25;9.82;;;15.10;99.90;;;;;;10418091;28;20045;-62
2021/05/10 02:05:06;;;;;;;11.43;6.65;;;15.10;99.90;;;;;;10165118;28;21343;-62
2021/05/10 02:10:18;;;;;;;3.95;3.55;;;15.10;99.90;;;;;;10123996;28;20064;-61
2021/05/10 02:15:19;;;;;;;4.65;3.70;;;15.10;99.90;;;;;;10137064;28;20292;-60
2021/05/10 02:20:22;;;;;;;3.65;2.78;;;15.10;99.90;;;;;;10129127;28;20049;-61
2021/05/10 02:25:25;;;;;;;3.92;3.47;;;15.00;99.90;;;;;;10132912;28;20049;-61
2021/05/10 02:30:29;;;;;;;3.65;3.35;;;15.10;99.90;;;;;;10122374;28;20476;-61
2021/05/10 02:35:31;;;;;;;3.95;3.25;;;15.20;99.90;;;;;;10129735;28;20057;-61
2021/05/10 02:40:33;;;;;;;3.30;2.85;;;15.30;99.90;;;;;;10135293;28;20076;-61
2021/05/10 02:45:36;;;;;;;3.50;3.20;;;15.50;99.90;;;;;;10129437;28;20136;-60
2021/05/10 02:50:38;;;;;;;3.33;3.13;;;15.50;99.90;;;;;;10130010;28;20061;-61
2021/05/10 02:55:39;;;;;;;3.30;3.10;;;15.50;99.90;;;;;;10129360;28;20076;-61
2021/05/10 03:00:40;;;;;;;3.65;3.45;;;15.50;99.90;;;;;;10118796;28;20045;-61
2021/05/10 03:05:42;;;;;;;2.63;1.23;;;15.40;99.90;;;;;;10307654;28;20562;-61
2021/05/10 03:10:44;;;;;;;2.70;2.10;;;15.30;99.90;;;;;;10408590;28;20040;-61
2021/05/10 03:15:45;;;;;;;5.18;1.98;;;15.30;99.90;;;;;;10412953;28;20102;-61
2021/05/10 03:20:46;;;;;;;3.90;1.77;;;15.10;99.90;;;;;;10407922;28;20059;-60
2021/05/10 03:25:47;;;;;;;3.30;1.77;;;15.10;99.90;;;;;;10414730;28;20052;-61
2021/05/10 03:30:48;;;;;;;3.08;1.77;;;15.10;99.90;;;;;;10407689;28;20056;-61
2021/05/10 03:35:50;;;;;;;3.45;1.70;;;15.10;99.90;;;;;;10412932;28;20438;-61
2021/05/10 03:40:51;;;;;;;4.15;1.38;;;15.10;99.90;;;;;;10413223;28;20045;-61
2021/05/10 03:45:52;;;;;;;2.92;2.00;;;15.10;99.90;;;;;;10407872;28;20052;-64
2021/05/10 03:50:53;;;;;;;2.30;2.10;;;15.10;99.90;;;;;;10408602;28;20112;-65
2021/05/10 03:55:54;;;;;;;4.25;1.83;;;15.00;99.90;;;;;;10394000;28;20045;-65
2021/05/10 04:00:55;;;;;;;2.72;1.23;;;14.90;99.90;;;;;;10414421;28;20538;-65
2021/05/10 04:06:17;;;;;;;2.42;1.65;;;14.90;99.90;;;;;;10410483;28;20450;-65
2021/05/10 04:16:38;;;;;;;5.13;1.90;;;14.90;99.90;;;;;;10417201;28;20557;-66
2021/05/10 04:21:39;;;;;;;4.25;1.33;;;14.90;99.90;;;;;;10417576;28;20049;-64
2021/05/10 04:26:40;;;;;;;2.90;1.40;;;14.90;99.90;;;;;;10417557;28;20103;-64
2021/05/10 04:31:41;;;;;;;2.22;1.50;;;15.10;99.90;;;;;;10413313;28;20048;-64
2021/05/10 04:36:42;;;;;;;4.72;1.60;;;15.10;99.90;;;;;;10417135;28;20049;-64
2021/05/10 04:41:44;;;;;;;3.78;1.90;;;15.10;99.90;;;;;;10417381;28;20103;-64
2021/05/10 04:46:45;;;;;;;5.90;1.90;;;15.30;99.90;;;;;;10412042;28;20131;-64
2021/05/10 04:51:46;;;;;;;6.50;2.47;;;15.10;99.90;;;;;;10417659;28;20075;-64
2021/05/10 04:56:47;;;;;;;4.55;2.20;;;15.50;99.90;;;;;;10413978;28;20068;-65
2021/05/10 05:01:48;;;;;;;2.97;1.85;;;15.80;99.90;;;;;;10417664;28;20134;-65
2021/05/10 05:06:49;;;;;;;3.70;2.15;;;16.00;99.90;;;;;;10416045;28;20041;-64
2021/05/10 05:11:51;;;;;;;4.55;1.90;;;16.10;99.90;;;;;;10415102;28;20056;-65
2021/05/10 05:16:52;;;;;;;2.72;1.88;;;16.20;99.90;;;;;;10413376;28;20061;-64
2021/05/10 05:21:53;;;;;;;5.90;2.00;;;16.30;99.90;;;;;;10412061;28;20044;-65
2021/05/10 05:26:54;;;;;;;6.18;2.47;;;16.40;99.90;;;;;;10415557;28;20455;-64
2021/05/10 05:31:57;;;;;;;6.78;2.20;;;16.40;99.90;;;;;;10415354;28;20356;-62
2021/05/10 05:36:59;;;;;;;2.83;2.05;;;16.50;99.90;;;;;;10415131;28;20441;-62
2021/05/10 05:42:00;;;;;;;7.15;2.03;;;16.50;99.90;;;;;;10414690;28;20463;-62
2021/05/10 05:47:02;;;;;;;2.67;2.22;;;16.70;99.90;;;;;;10414409;28;20443;-61
2021/05/10 05:52:04;;;;;;;5.65;2.35;;;16.80;99.90;;;;;;10415095;28;20373;-62
2021/05/10 05:57:06;;;;;;;10.90;1.77;;;17.10;99.90;;;;;;10411207;28;20049;-62
2021/05/10 06:02:07;;;;;;;4.80;2.13;;;17.30;99.90;;;;;;10414121;28;20460;-61
2021/05/10 06:07:08;;;;;;;3.53;1.77;;;17.30;99.90;;;;;;10417926;28;20049;-60
2021/05/10 06:12:10;;;;;;;7.43;2.00;;;17.40;99.90;;;;;;10411603;28;20033;-61
2021/05/10 06:17:11;;;;;;;6.18;1.60;;;17.50;99.90;;;;;;10411367;28;20052;-60
2021/05/10 06:22:15;;;;;;;3.63;1.45;;;17.60;99.90;;;;;;10410524;28;20045;-60
2021/05/10 06:27:16;;;;;;;3.13;1.60;;;17.80;99.90;;;;;;10407876;28;20045;-60
2021/05/10 06:32:17;;;;;;;6.15;1.95;;;18.10;99.90;;;;;;10408895;28;20041;-60
2021/05/10 06:37:22;;;;;;;3.85;1.13;;;18.40;99.90;;;;;;10407877;28;20127;-62
2021/05/10 06:42:24;;;;;;;3.53;1.25;;;18.40;99.90;;;;;;10409389;28;20049;-63
2021/05/10 06:47:26;;;;;;;2.58;0.90;;;18.70;99.90;;;;;;10395935;28;20053;-63
2021/05/10 06:52:27;;;;;;;3.45;0.90;;;18.80;99.90;;;;;;10411621;28;20041;-63
2021/05/10 06:57:29;;;;;;;9.38;1.65;;;19.00;99.90;;;;;;10407040;28;20506;-62
2021/05/10 07:02:30;;;;;;;1.92;0.73;;;19.10;99.90;;;;;;10412213;28;20045;-63
2021/05/10 07:07:33;;;;;;;3.47;0.70;;;19.40;99.00;;;;;;10408437;28;20154;-63
2021/05/10 07:12:34;;;;;;;1.50;0.80;;;19.50;97.50;;;;;;10410020;28;20045;-63
2021/05/10 07:17:36;;;;;;;10.68;2.38;;;19.70;96.10;;;;;;10410361;28;20495;-62
2021/05/10 07:22:37;;;;;;;2.38;0.82;;;19.70;95.20;;;;;;10411489;28;20123;-63
2021/05/10 07:27:38;;;;;;;1.55;0.50;;;19.70;94.00;;;;;;10409972;28;20102;-63
2021/05/10 07:32:40;;;;;;;4.28;0.60;;;19.60;93.50;;;;;;10411366;28;20045;-63
2021/05/10 07:37:41;;;;;;;1.55;0.50;;;19.60;93.00;;;;;;10411666;28;20462;-63
2021/05/10 07:42:42;;;;;;;1.20;0.50;;;19.60;92.00;;;;;;10406117;28;20111;-63
2021/05/10 07:47:44;;;;;;;3.22;0.40;;;19.70;91.50;;;;;;10415692;28;20056;-62
2021/05/10 07:52:45;;;;;;;5.82;0.40;;;19.90;90.80;;;;;;10417818;28;20120;-62
2021/05/10 07:57:46;;;;;;;2.13;0.50;;;20.10;90.00;;;;;;10414097;28;20061;-63
2021/05/10 08:02:53;;;;;;;4.18;0.85;;;20.30;88.30;;;;;;10414663;28;20395;-63
2021/05/10 08:07:54;;;;;;;3.67;0.52;;;20.40;88.10;;;;;;10417881;28;20588;-63
2021/05/10 08:12:55;;;;;;;2.10;0.40;;;20.40;87.20;;;;;;10416380;28;20056;-63
2021/05/10 08:17:56;;;;;;;1.85;0.50;;;20.30;87.20;;;;;;10415606;28;21091;-63
2021/05/10 08:23:13;;;;;;;2.35;0.40;;;20.30;86.20;;;;;;10419023;28;20060;-63
2021/05/10 08:28:15;;;;;;;0.80;0.30;;;20.40;86.40;;;;;;10416216;28;20049;-63
2021/05/10 08:33:16;;;;;;;1.33;0.20;;;20.30;83.80;;;;;;10399578;28;20574;-62
2021/05/10 08:38:17;;;;;;;4.68;0.35;;;20.20;81.40;;;;;;10417026;28;20381;-63
2021/05/10 08:43:21;;;;;;;1.10;0.50;;;20.50;83.20;;;;;;10422686;28;20049;-63
2021/05/10 08:48:23;;;;;;;2.35;0.40;;;20.30;81.90;;;;;;10420701;28;20053;-62
2021/05/10 08:53:33;;;;;;;1.63;0.20;;;20.30;82.30;;;;;;10417272;28;20503;-62
2021/05/10 08:58:46;;;;;;;2.17;0.45;;;20.40;82.50;;;;;;10418014;28;20045;-63
2021/05/10 09:03:50;;;;;;;1.70;0.40;;;20.40;82.20;;;;;;10366302;28;20134;-62
2021/05/10 09:08:51;;;;;;;3.03;0.25;;;20.50;81.10;;;;;;10416636;28;20045;-62
2021/05/10 09:13:57;;;;;;;3.92;0.73;;;20.70;80.00;;;;;;10417187;28;20048;-62
2021/05/10 09:18:59;;;;;;;3.72;0.20;;;20.80;78.80;;;;;;10416880;28;20049;-62
2021/05/10 09:24:20;;;;;;;0.40;0.20;;;20.80;78.50;;;;;;10415310;28;20049;-63
2021/05/10 09:29:41;;;;;;;3.28;0.45;;;20.80;77.70;;;;;;10355201;28;20048;-62
2021/05/10 09:34:42;;;;;;;0.50;0.20;;;20.70;76.40;;;;;;10414478;28;20448;-62
2021/05/10 09:39:43;;;;;;;0.80;0.10;;;20.80;75.20;;;;;;10412647;28;20049;-63
2021/05/10 09:44:45;;;;;;;1.25;0.38;;;20.40;75.10;;;;;;10410365;28;20450;-63
2021/05/10 09:49:49;;;;;;;1.38;0.20;;;20.20;76.20;;;;;;10410514;28;20053;-63
2021/05/10 09:54:59;;;;;;;3.72;0.25;;;20.10;78.10;;;;;;10410887;28;20056;-62
2021/05/10 10:00:20;;;;;;;3.47;0.28;;;19.80;79.30;;;;;;10412076;28;20056;-62
2021/05/10 10:05:22;;;;;;;1.52;0.15;;;19.80;80.20;;;;;;10362350;28;20132;-60
2021/05/10 10:10:24;;;;;;;4.53;0.20;;;19.70;80.00;;;;;;10411316;28;20049;-60
2021/05/10 10:15:25;;;;;;;1.98;0.70;;;19.60;81.30;;;;;;10364605;28;20049;-62
2021/05/10 10:20:28;;;;;;;2.03;0.20;;;19.50;81.20;;;;;;10339942;28;20053;-60
2021/05/10 10:25:31;;;;;;;0.52;0.38;;;19.50;82.60;;;;;;10413757;28;20590;-60
2021/05/10 10:30:57;;;;;;;1.65;0.10;;;19.40;82.10;;;;;;10359706;28;20132;-61
2021/05/10 10:36:00;;;;;;;2.20;0.73;;;19.30;84.10;;;;;;10414944;28;20398;-60
2021/05/10 10:41:22;;;;;;;1.58;0.30;;;19.40;83.30;;;;;;10414836;28;20049;-61
2021/05/10 10:46:29;;;;;;;2.28;0.20;;;19.50;83.60;;;;;;10359088;28;20045;-60
2021/05/10 10:51:50;;;;;;;1.45;0.30;;;19.70;83.30;;;;;;10407196;28;20045;-60
2021/05/10 10:57:00;;;;;;;1.73;0.20;;;20.00;82.40;;;;;;10363867;28;20451;-61
2021/05/10 11:02:19;;;;;;;0.20;0.10;;;20.20;80.70;;;;;;10408139;28;20049;-60
2021/05/10 11:07:47;;;;;;;2.65;0.40;;;19.90;80.60;;;;;;10361801;28;20068;-61
2021/05/10 11:12:52;;;;;;;1.50;0.20;;;20.40;81.60;;;;;;10362567;28;20057;-60
2021/05/10 11:17:54;;;;;;;0.83;0.20;;;20.50;77.20;;;;;;10409262;28;20060;-63
2021/05/10 11:23:23;;;;;;;0.85;0.17;;;20.30;77.00;;;;;;10404959;28;20037;-63
2021/05/10 11:28:24;;;;;;;0.30;0.10;;;20.30;82.30;;;;;;10362317;28;20096;-63
2021/05/10 11:33:54;;;;;;;0.30;0.15;;;20.10;80.10;;;;;;10399698;28;20052;-63
2021/05/10 11:38:58;;;;;;;1.13;0.10;;;19.80;81.40;;;;;;10364428;28;20071;-63
2021/05/10 11:44:02;;;;;;;0.60;0.10;;;19.80;83.10;;;;;;10410358;28;20057;-63
2021/05/10 11:49:05;;;;;;;0.20;0.10;;;20.00;83.30;;;;;;10409573;28;20111;-62
2021/05/10 11:54:08;;;;;;;1.10;0.20;;;20.10;81.40;;;;;;10408607;28;20041;-63
2021/05/10 11:59:34;;;;;;;1.17;0.20;;;20.40;81.60;;;;;;10404976;28;20042;-63
2021/05/10 12:05:06;;;;;;;0.85;0.20;;;20.40;81.30;;;;;;10410024;28;20068;-60
2021/05/10 12:10:12;;;;;;;0.90;0.10;;;20.20;82.70;;;;;;10360395;28;20057;-61
2021/05/10 12:15:23;;;;;;;0.20;0.10;;;19.60;84.80;;;;;;10408534;28;20061;-61
2021/05/10 12:20:32;;;;;;;0.20;0.10;;;19.40;86.70;;;;;;10413701;28;20056;-60
2021/05/10 12:25:38;;;;;;;2.28;0.15;;;18.90;88.60;;;;;;10402615;28;20900;-60
2021/05/10 12:30:45;;;;;;;1.45;0.20;;;18.80;91.40;;;;;;10410378;28;20063;-62
2021/05/10 12:35:51;;;;;;;0.47;0.20;;;18.40;95.00;;;;;;10416247;28;20068;-63
2021/05/10 12:40:53;;;;;;;0.88;0.20;;;18.10;99.90;;;;;;10419682;28;20072;-63
2021/05/10 12:45:57;;;;;;;0.35;0.20;;;18.00;99.90;;;;;;10415056;28;20450;-63
2021/05/10 12:51:16;;;;;;;2.38;0.13;;;18.00;99.90;;;;;;10415616;28;20135;-63
2021/05/10 12:56:19;;;;;;;2.05;0.20;;;18.00;99.90;;;;;;10413943;28;20088;-63
2021/05/10 13:01:25;;;;;;;1.13;0.20;;;17.70;99.90;;;;;;10408494;28;20106;-62
2021/05/10 13:06:28;;;;;;;2.23;0.20;;;17.50;99.90;;;;;;10410860;28;20380;-62
2021/05/10 13:11:40;;;;;;;1.13;0.10;;;17.50;99.90;;;;;;10412907;28;20045;-63
2021/05/10 13:17:00;;;;;;;0.28;0.10;;;17.50;99.90;;;;;;10414321;28;20048;-63
2021/05/10 13:30:59;;;;;;;0.60;0.10;;;17.30;99.90;;;;;;10349755;28;20120;-63
2021/05/10 13:33:32;;;;;;;0.88;0.28;;;17.40;99.90;;;;;;10409285;28;20071;-63
2021/05/10 13:38:35;;;;;;;0.10;0.00;;;17.60;99.90;;;;;;10396893;28;20589;-63
2021/05/10 13:48:56;;;;;;;0.00;0.00;;;17.30;99.90;;;;;;10365830;28;20546;-64
2021/05/10 13:53:59;;;;;;;0.10;0.10;;;17.00;99.90;;;;;;10417651;28;20053;-63
2021/05/10 13:59:00;;;;;;;0.10;0.00;;;16.70;99.90;;;;;;10415117;28;20483;-63
2021/05/10 14:04:02;;;;;;;0.22;0.10;;;16.60;99.90;;;;;;10414694;28;20049;-62
2021/05/10 14:09:04;;;;;;;0.43;0.10;;;16.50;99.90;;;;;;10410841;28;20057;-62
2021/05/10 14:14:06;;;;;;;0.00;0.00;;;16.10;99.90;;;;;;10412811;28;20051;-62
2021/05/10 14:19:15;;;;;;;0.30;0.10;;;16.00;99.90;;;;;;10409243;28;20045;-62
2021/05/10 14:24:16;;;;;;;1.20;0.20;;;15.70;99.90;;;;;;10408595;28;20064;-61
2021/05/10 14:29:18;;;;;;;0.43;0.10;;;15.80;99.90;;;;;;10412202;28;20052;-61
2021/05/10 14:34:21;;;;;;;0.60;0.20;;;15.60;99.90;;;;;;10411183;28;20118;-61
2021/05/10 14:39:22;;;;;;;0.85;0.20;;;15.60;99.90;;;;;;10413116;28;20064;-61
2021/05/10 14:44:23;;;;;;;1.83;0.20;;;15.50;99.90;;;;;;10410776;28;20110;-61
2021/05/10 14:49:26;;;;;;;0.63;0.47;;;15.50;99.90;;;;;;10408367;28;20492;-60
2021/05/10 14:54:28;;;;;;;2.80;0.13;;;15.60;99.90;;;;;;10409158;28;20481;-61
2021/05/10 14:59:29;;;;;;;0.90;0.13;;;15.60;99.90;;;;;;10396072;28;20060;-60
2021/05/10 15:04:30;;;;;;;0.13;0.10;;;15.70;99.90;;;;;;10411217;28;20479;-61
2021/05/10 15:09:33;;;;;;;1.92;0.30;;;15.80;99.90;;;;;;10415797;28;20469;-62
2021/05/10 15:14:39;;;;;;;3.15;0.40;;;15.90;99.90;;;;;;10412565;28;20045;-61
2021/05/10 15:19:40;;;;;;;0.50;0.20;;;15.90;99.90;;;;;;10409121;28;20053;-61
2021/05/10 15:24:41;;;;;;;1.45;0.20;;;15.90;99.90;;;;;;10405947;28;20114;-61
2021/05/10 15:29:42;;;;;;;1.17;0.30;;;15.90;99.90;;;;;;10409386;28;20065;-61
2021/05/10 15:34:43;;;;;;;1.50;0.30;;;15.80;99.90;;;;;;10411967;28;20076;-61
2021/05/10 15:39:46;;;;;;;2.63;0.50;;;16.00;99.90;;;;;;10407307;28;20059;-61
2021/05/10 15:44:47;;;;;;;1.17;0.47;;;15.90;99.90;;;;;;10403989;28;23047;-61
2021/05/10 15:49:49;;;;;;;0.60;0.30;;;16.00;99.90;;;;;;10406946;28;20132;-61
2021/05/10 15:54:50;;;;;;;1.13;0.40;;;15.70;99.90;;;;;;10412847;28;20084;-61
2021/05/10 15:59:51;;;;;;;1.65;0.35;;;15.70;99.90;;;;;;10410523;28;20091;-61
2021/05/10 16:04:53;;;;;;;1.27;0.35;;;15.90;99.90;;;;;;10408894;28;20045;-61
2021/05/10 16:09:54;;;;;;;0.68;0.30;;;15.80;99.90;;;;;;10418052;28;20064;-60
2021/05/10 16:14:56;;;;;;;3.97;1.38;;;15.70;99.90;;;;;;10418349;28;20099;-61
2021/05/10 16:19:57;;;;;;;1.38;0.60;;;15.40;99.90;;;;;;10419407;28;20095;-60
2021/05/10 16:24:59;;;;;;;6.95;1.60;;;15.30;99.90;;;;;;10417427;28;20388;-60
2021/05/10 16:30:00;;;;;;;2.22;0.63;;;15.30;99.90;;;;;;10417737;28;20049;-61
2021/05/10 16:35:01;;;;;;;0.73;0.30;;;15.20;99.90;;;;;;10417267;28;20495;-61
2021/05/10 16:40:04;;;;;;;6.05;0.60;;;15.20;99.90;;;;;;10415792;28;20052;-60
2021/05/10 16:45:06;;;;;;;2.05;0.30;;;15.20;99.90;;;;;;10417918;28;20194;-59
2021/05/10 16:50:08;;;;;;;1.25;0.30;;;15.20;99.90;;;;;;10417399;28;20045;-60
2021/05/10 16:55:10;;;;;;;2.15;0.30;;;15.10;99.90;;;;;;10413225;28;20530;-60
2021/05/10 17:00:12;;;;;;;4.68;0.47;;;14.90;99.90;;;;;;10414336;28;20064;-60
2021/05/10 17:05:13;;;;;;;0.98;0.52;;;14.80;99.90;;;;;;10419459;28;20049;-60
2021/05/10 17:10:16;;;;;;;2.30;0.60;;;14.70;99.90;;;;;;10413311;28;20140;-60
2021/05/10 17:15:18;;;;;;;3.35;0.60;;;14.70;99.90;;;;;;10416211;28;20057;-60
2021/05/10 17:20:19;;;;;;;1.13;0.60;;;14.70;99.90;;;;;;10416750;28;20049;-61
2021/05/10 17:25:21;;;;;;;2.42;0.60;;;14.60;99.90;;;;;;10417389;28;20048;-60
2021/05/10 17:30:22;;;;;;;5.75;0.80;;;14.60;99.90;;;;;;10411358;28;20049;-59
2021/05/10 17:35:23;;;;;;;1.83;0.40;;;14.80;99.90;;;;;;10417466;28;20053;-59
2021/05/10 17:40:26;;;;;;;9.35;2.60;;;14.70;99.90;;;;;;10417353;28;20053;-59
2021/05/10 17:45:27;;;;;;;4.00;1.40;;;14.60;99.90;;;;;;10418439;28;20049;-60
2021/05/10 17:50:29;;;;;;;2.72;0.93;;;14.60;99.90;;;;;;10416132;28;20077;-60
2021/05/10 17:55:30;;;;;;;5.05;0.82;;;14.70;99.90;;;;;;10416005;28;20057;-60
2021/05/10 18:00:31;;;;;;;2.67;0.95;;;14.80;99.90;;;;;;10421866;28;20049;-60
2021/05/10 18:05:33;;;;;;;3.78;0.65;;;14.70;99.90;;;;;;10416851;28;20059;-60
2021/05/10 18:10:34;;;;;;;1.40;0.60;;;14.60;99.90;;;;;;10414051;28;20049;-59
2021/05/10 18:15:41;;;;;;;3.35;0.60;;;14.60;99.90;;;;;;10419559;28;20427;-60
2021/05/10 18:20:43;;;;;;;1.20;0.55;;;14.50;99.90;;;;;;10411014;28;20049;-58
2021/05/10 18:25:44;;;;;;;2.17;0.70;;;14.60;99.90;;;;;;10413304;28;20145;-59
2021/05/10 18:30:47;;;;;;;1.42;0.73;;;14.50;99.90;;;;;;10411988;28;20057;-59
2021/05/10 18:35:49;;;;;;;4.18;1.10;;;14.50;99.90;;;;;;10412348;28;20045;-59
2021/05/10 18:40:50;;;;;;;4.07;1.08;;;14.50;99.90;;;;;;10411555;28;20565;-60
2021/05/10 18:45:52;;;;;;;4.90;1.05;;;14.50;99.90;;;;;;10405414;28;20040;-61
2021/05/10 18:51:00;;;;;;;3.95;1.70;;;14.40;99.90;;;;;;10392637;28;20052;-58
2021/05/10 18:56:01;;;;;;;2.42;1.00;;;14.40;99.90;;;;;;10412386;28;20049;-60
2021/05/10 19:01:07;;;;;;;4.55;1.83;;;14.30;99.90;;;;;;10409458;28;20054;-59
2021/05/10 19:06:08;;;;;;;5.57;1.70;;;14.30;99.90;;;;;;10410980;28;20049;-59
2021/05/10 19:11:09;;;;;;;3.63;1.83;;;14.30;99.90;;;;;;10409686;28;20076;-59
2021/05/10 19:16:10;;;;;;;2.13;1.80;;;14.30;99.90;;;;;;10413158;28;20053;-59
2021/05/10 19:21:12;;;;;;;3.20;1.90;;;14.30;99.90;;;;;;10410165;28;20045;-59
2021/05/10 19:26:13;;;;;;;3.38;1.50;;;14.20;99.90;;;;;;10404517;28;20045;-58
2021/05/10 19:31:14;;;;;;;3.72;1.85;;;14.20;99.90;;;;;;10407096;28;20049;-59
2021/05/10 19:36:15;;;;;;;5.22;1.52;;;14.20;99.90;;;;;;10404447;28;20130;-60
2021/05/10 19:41:17;;;;;;;3.47;1.35;;;14.20;99.90;;;;;;10407958;28;20198;-59
2021/05/10 19:46:22;;;;;;;1.85;1.30;;;14.20;99.90;;;;;;10407009;28;20060;-60
2021/05/10 20:02:05;;;;;;;4.80;1.85;;;14.10;99.90;;;;;;10358485;28;20111;-59
2021/05/10 20:07:06;;;;;;;3.60;1.67;;;14.00;99.90;;;;;;10407128;28;20072;-60
2021/05/10 20:12:09;;;;;;;4.50;1.52;;;14.00;99.90;;;;;;10408074;28;20053;-59
2021/05/10 20:17:10;;;;;;;5.70;2.20;;;14.00;99.90;;;;;;10404029;28;20105;-60
2021/05/10 20:22:11;;;;;;;6.13;4.03;;;14.00;99.90;;;;;;10404721;28;20126;-60
2021/05/10 20:27:12;;;;;;;5.00;2.53;;;14.00;99.90;;;;;;10404198;28;20057;-59
2021/05/10 20:32:13;;;;;;;4.22;3.05;;;14.00;99.90;;;;;;10404173;28;20045;-60
2021/05/10 20:37:15;;;;;;;7.55;3.22;;;13.90;99.90;;;;;;10407392;28;20478;-60
2021/05/10 20:42:16;;;;;;;4.05;2.75;;;13.90;99.90;;;;;;10405087;28;20068;-59
2021/05/10 20:47:17;;;;;;;9.30;4.00;;;14.00;99.90;;;;;;10406111;28;20045;-59
2021/05/10 20:52:18;;;;;;;5.50;3.10;;;13.90;99.90;;;;;;10406964;28;20053;-60
2021/05/10 20:57:20;;;;;;;6.60;3.83;;;13.90;99.90;;;;;;10408762;28;20131;-60
2021/05/10 21:02:21;;;;;;;7.00;3.92;;;13.90;99.90;;;;;;10410940;28;20111;-60
2021/05/10 21:07:22;;;;;;;5.97;3.88;;;13.90;99.90;;;;;;10415649;28;20459;-60
2021/05/10 21:12:23;;;;;;;6.72;3.92;;;13.80;99.90;;;;;;10413559;28;20046;-61
2021/05/10 21:17:24;;;;;;;10.10;5.00;;;13.80;99.90;;;;;;10411918;28;20057;-60
2021/05/10 21:22:26;;;;;;;9.85;4.20;;;13.90;99.90;;;;;;10407535;28;20176;-60
2021/05/10 21:27:27;;;;;;;9.63;5.00;;;13.90;99.90;;;;;;10412308;28;20556;-60
2021/05/10 21:32:29;;;;;;;6.82;4.38;;;13.80;99.90;;;;;;10408530;28;20492;-60
2021/05/10 21:37:30;;;;;;;7.03;4.45;;;13.90;99.90;;;;;;10408282;28;20063;-58
2021/05/10 21:42:31;;;;;;;10.60;6.40;;;13.90;99.90;;;;;;10412595;28;20045;-59
2021/05/10 21:47:33;;;;;;;9.85;5.53;;;13.90;99.90;;;;;;10412229;28;20041;-60
2021/05/10 21:52:34;;;;;;;8.45;5.38;;;14.00;99.90;;;;;;10409829;28;20049;-59
2021/05/10 21:57:35;;;;;;;9.45;5.03;;;13.90;99.90;;;;;;10408418;28;20445;-60
2021/05/10 22:02:37;;;;;;;10.18;5.55;;;13.90;99.90;;;;;;10409220;28;20142;-59
2021/05/10 22:07:38;;;;;;;15.27;6.10;;;13.90;99.90;;;;;;10409004;28;20057;-59
2021/05/10 22:12:39;;;;;;;13.80;6.55;;;13.90;99.90;;;;;;10407212;28;20057;-60
2021/05/10 22:17:45;;;;;;;11.13;6.43;;;13.80;99.90;;;;;;10408460;28;20174;-60
2021/05/10 22:22:51;;;;;;;11.48;6.05;;;13.80;99.90;;;;;;10410195;28;20132;-60
2021/05/10 22:28:14;;;;;;;15.70;7.13;;;13.70;99.90;;;;;;10416245;28;20046;-61
2021/05/10 22:33:15;;;;;;;12.32;7.07;;;13.80;99.90;;;;;;10406690;28;20065;-59
2021/05/10 22:43:36;;;;;;;11.73;6.55;;;13.80;99.90;;;;;;10413068;28;20053;-59
2021/05/10 23:04:32;;;;;;;11.85;6.82;;;13.90;99.90;;;;;;10356480;28;20049;-60
2021/05/10 23:10:06;;;;;;;12.43;6.70;;;13.90;99.90;;;;;;10416407;28;20041;-60
2021/05/10 23:20:16;;;;;;;13.48;7.00;;;13.90;99.90;;;;;;10408304;28;20064;-60
2021/05/10 23:25:18;;;;;;;16.08;7.93;;;13.90;99.90;;;;;;10409075;28;20057;-60
2021/05/10 23:30:19;;;;;;;20.85;11.02;;;13.90;99.90;;;;;;10408782;28;20037;-59
2021/05/10 23:35:20;;;;;;;20.33;11.05;;;13.90;99.90;;;;;;10413309;28;20057;-58
2021/05/10 23:40:22;;;;;;;17.30;9.68;;;13.90;99.90;;;;;;10409435;28;20053;-60
2021/05/10 23:45:23;;;;;;;14.65;7.68;;;13.90;99.90;;;;;;10406915;28;20546;-61
2021/05/10 23:50:24;;;;;;;14.93;7.20;;;13.80;99.90;;;;;;10410277;28;20053;-60
2021/05/10 23:55:31;;;;;;;17.52;7.60;;;13.80;99.90;;;;;;10392069;28;20049;-60
